createdAt,value
2019-02-08T00:01:22.023Z,98341.63
2019-02-08T00:03:51.296Z,98346.21
2019-02-08T00:06:20.599Z,98359.39
2019-02-08T00:08:49.870Z,98347.61
2019-02-08T00:11:19.124Z,98348.92
2019-02-08T00:13:48.438Z,98348.16
2019-02-08T00:16:17.743Z,98351.91
2019-02-08T00:18:47.422Z,98362.67
2019-02-08T00:21:16.750Z,98362.63
2019-02-08T00:23:46.133Z,98370.14
2019-02-08T00:26:15.620Z,98367.45
2019-02-08T00:28:44.889Z,98369.35
2019-02-08T00:31:14.184Z,98375.52
2019-02-08T00:33:43.859Z,98378.13
2019-02-08T00:36:13.137Z,98378.95
2019-02-08T00:38:43.034Z,98389.48
2019-02-08T00:41:12.285Z,98388.41
2019-02-08T00:43:41.615Z,98388.70
2019-02-08T00:46:11.077Z,98391.38
2019-02-08T00:48:40.365Z,98395.41
2019-02-08T00:51:09.660Z,98392.45
2019-02-08T00:53:38.911Z,98400.14
2019-02-08T00:56:08.197Z,98399.63
2019-02-08T00:58:37.508Z,98400.19
2019-02-08T01:01:06.843Z,98402.32
2019-02-08T01:03:36.104Z,98404.22
2019-02-08T01:06:06.267Z,98400.98
2019-02-08T01:08:35.529Z,98405.56
2019-02-08T01:11:04.820Z,98407.15
2019-02-08T01:13:34.097Z,98413.58
2019-02-08T01:16:03.466Z,98408.37
2019-02-08T01:18:32.779Z,98418.32
2019-02-08T01:21:02.524Z,98417.82
2019-02-08T01:23:31.808Z,98411.58
2019-02-08T01:26:01.076Z,98419.93
2019-02-08T01:28:30.372Z,98422.88
2019-02-08T01:30:59.665Z,98422.06
2019-02-08T01:33:28.937Z,98423.14
2019-02-08T01:35:58.223Z,98422.85
2019-02-08T01:38:27.491Z,98425.31
2019-02-08T01:40:56.796Z,98414.27
2019-02-08T01:43:26.085Z,98412.85
2019-02-08T01:45:55.366Z,98417.67
2019-02-08T01:48:24.669Z,98408.81
2019-02-08T01:50:53.979Z,98410.16
2019-02-08T01:53:23.253Z,98417.69
2019-02-08T01:55:52.512Z,98407.18
2019-02-08T01:58:21.788Z,98414.95
2019-02-08T02:00:51.052Z,98414.13
2019-02-08T02:03:20.717Z,98415.45
2019-02-08T02:05:49.968Z,98419.78
2019-02-08T02:08:19.260Z,98418.84
2019-02-08T02:10:48.576Z,98419.09
2019-02-08T02:13:17.832Z,98418.16
2019-02-08T02:15:47.249Z,98422.20
2019-02-08T02:18:16.529Z,98418.00
2019-02-08T02:20:45.874Z,98422.72
2019-02-08T02:23:16.542Z,98418.98
2019-02-08T02:25:46.131Z,98419.64
2019-02-08T02:28:15.412Z,98421.83
2019-02-08T02:30:44.678Z,98421.03
2019-02-08T02:33:14.449Z,98417.41
2019-02-08T02:35:44.307Z,98414.42
2019-02-08T02:38:13.570Z,98415.24
2019-02-08T02:40:42.831Z,98421.22
2019-02-08T02:43:12.215Z,98421.71
2019-02-08T02:45:42.417Z,98420.11
2019-02-08T02:48:14.655Z,98415.59
2019-02-08T02:50:43.916Z,98431.98
2019-02-08T02:53:13.176Z,98425.41
2019-02-08T02:55:42.456Z,98429.67
2019-02-08T02:58:11.726Z,98421.83
2019-02-08T03:00:43.435Z,98420.92
2019-02-08T03:03:14.423Z,98419.84
2019-02-08T03:05:44.180Z,98424.44
2019-02-08T03:08:15.498Z,98425.27
2019-02-08T03:10:45.350Z,98421.48
2019-02-08T03:13:14.848Z,98422.87
2019-02-08T03:15:44.420Z,98417.51
2019-02-08T03:18:14.216Z,98415.99
2019-02-08T03:20:43.600Z,98420.44
2019-02-08T03:23:13.050Z,98423.31
2019-02-08T03:25:42.335Z,98423.31
2019-02-08T03:28:11.687Z,98425.99
2019-02-08T03:30:58.056Z,98425.31
2019-02-08T03:33:27.510Z,98428.02
2019-02-08T03:35:56.801Z,98434.19
2019-02-08T03:38:26.051Z,98427.45
2019-02-08T03:40:55.305Z,98437.44
2019-02-08T03:43:24.577Z,98433.81
2019-02-08T03:45:54.395Z,98432.81
2019-02-08T03:48:23.684Z,98424.63
2019-02-08T03:50:52.962Z,98435.34
2019-02-08T03:53:22.247Z,98428.48
2019-02-08T03:55:58.165Z,98426.11
2019-02-08T03:58:23.111Z,98430.06
2019-02-08T04:00:57.144Z,98438.94
2019-02-08T04:03:26.429Z,98436.25
2019-02-08T04:05:56.136Z,98432.28
2019-02-08T04:08:25.400Z,98441.24
2019-02-08T04:10:54.681Z,98441.14
2019-02-08T04:13:23.928Z,98440.62
2019-02-08T04:15:53.392Z,98439.34
2019-02-08T04:18:22.789Z,98438.05
2019-02-08T04:20:52.095Z,98437.00
2019-02-08T04:23:21.337Z,98441.44
2019-02-08T04:25:50.819Z,98446.94
2019-02-08T04:28:20.067Z,98448.03
2019-02-08T04:30:49.341Z,98451.55
2019-02-08T04:33:18.597Z,98458.64
2019-02-08T04:35:47.855Z,98458.80
2019-02-08T04:38:18.435Z,98459.09
2019-02-08T04:40:47.856Z,98460.31
2019-02-08T04:43:17.117Z,98458.73
2019-02-08T04:45:46.400Z,98459.61
2019-02-08T04:48:15.663Z,98462.86
2019-02-08T04:50:44.937Z,98457.73
2019-02-08T04:53:14.183Z,98471.27
2019-02-08T04:55:43.465Z,98465.81
2019-02-08T04:58:12.743Z,98466.93
2019-02-08T05:00:41.993Z,98469.98
2019-02-08T05:03:11.249Z,98478.31
2019-02-08T05:05:40.532Z,98473.17
2019-02-08T05:08:09.795Z,98479.11
2019-02-08T05:10:39.072Z,98484.51
2019-02-08T05:13:08.355Z,98471.02
2019-02-08T05:15:37.637Z,98475.86
2019-02-08T05:18:07.122Z,98492.09
2019-02-08T05:20:36.401Z,98489.35
2019-02-08T05:23:05.708Z,98481.81
2019-02-08T05:25:34.987Z,98475.55
2019-02-08T05:28:04.353Z,98478.23
2019-02-08T05:30:35.443Z,98481.81
2019-02-08T05:33:05.776Z,98482.06
2019-02-08T05:35:35.354Z,98472.92
2019-02-08T05:38:05.024Z,98471.66
2019-02-08T05:40:34.276Z,98463.02
2019-02-08T05:43:03.657Z,98462.98
2019-02-08T05:45:33.612Z,98454.89
2019-02-08T05:48:03.189Z,98452.76
2019-02-08T05:50:32.441Z,98462.98
2019-02-08T05:53:01.727Z,98462.98
2019-02-08T05:55:31.562Z,98451.68
2019-02-08T05:58:03.587Z,98461.63
2019-02-08T06:00:48.186Z,98460.83
2019-02-08T06:03:18.357Z,98459.45
2019-02-08T06:05:51.032Z,98457.88
2019-02-08T06:08:23.378Z,98457.85
2019-02-08T06:10:54.398Z,98453.54
2019-02-08T06:13:24.523Z,98460.09
2019-02-08T06:15:55.492Z,98451.94
2019-02-08T06:18:27.067Z,98450.07
2019-02-08T06:20:58.095Z,98446.59
2019-02-08T06:23:31.078Z,98456.33
2019-02-08T06:26:02.599Z,98454.92
2019-02-08T06:28:32.312Z,98459.66
2019-02-08T06:31:02.688Z,98465.05
2019-02-08T06:33:32.224Z,98468.09
2019-02-08T06:36:02.327Z,98479.66
2019-02-08T06:38:31.998Z,98469.93
2019-02-08T06:41:01.700Z,98472.28
2019-02-08T06:43:31.533Z,98484.46
2019-02-08T06:46:01.205Z,98479.34
2019-02-08T06:48:31.772Z,98479.02
2019-02-08T06:51:01.254Z,98491.37
2019-02-08T06:53:30.547Z,98487.57
2019-02-08T06:55:59.828Z,98480.52
2019-02-08T06:58:42.653Z,98488.33
2019-02-08T07:01:33.852Z,98496.11
2019-02-08T07:04:29.353Z,98496.32
2019-02-08T07:07:08.125Z,98498.75
2019-02-08T07:10:14.774Z,98498.16
2019-02-08T07:13:01.580Z,98502.31
2019-02-08T07:15:47.118Z,98500.53
2019-02-08T07:18:40.037Z,98496.88
2019-02-08T07:21:39.912Z,98490.70
2019-02-08T07:24:25.313Z,98497.44
2019-02-08T07:27:13.550Z,98494.36
2019-02-08T07:29:57.708Z,98498.25
2019-02-08T07:32:45.935Z,98505.65
2019-02-08T07:35:31.193Z,98502.55
2019-02-08T07:38:19.154Z,98506.73
2019-02-08T07:41:11.392Z,98503.77
2019-02-08T07:44:09.095Z,98497.28
2019-02-08T07:47:11.381Z,98505.73
2019-02-08T07:50:01.620Z,98506.53
2019-02-08T07:52:48.947Z,98503.39
2019-02-08T07:55:42.762Z,98511.69
2019-02-08T07:58:46.619Z,98514.22
2019-02-08T08:01:38.784Z,98518.29
2019-02-08T08:04:29.173Z,98517.80
2019-02-08T08:07:36.036Z,98515.00
2019-02-08T08:10:15.349Z,98520.02
2019-02-08T08:13:03.650Z,98518.55
2019-02-08T08:15:58.244Z,98522.29
2019-02-08T08:18:45.355Z,98528.51
2019-02-08T08:21:32.820Z,98529.25
2019-02-08T08:24:12.011Z,98526.00
2019-02-08T08:27:14.374Z,98529.70
2019-02-08T08:30:04.260Z,98526.75
2019-02-08T08:32:41.756Z,98527.83
2019-02-08T08:35:34.794Z,98530.34
2019-02-08T08:38:57.240Z,98535.16
2019-02-08T08:41:59.698Z,98535.36
2019-02-08T08:45:04.885Z,98539.30
2019-02-08T08:47:58.776Z,98540.72
2019-02-08T08:50:54.252Z,98526.45
2019-02-08T08:54:10.356Z,98529.66
2019-02-08T08:57:02.891Z,98527.60
2019-02-08T08:59:49.960Z,98525.42
2019-02-08T09:02:34.714Z,98528.86
2019-02-08T09:05:49.561Z,98524.19
2019-02-08T09:08:57.396Z,98527.42
2019-02-08T09:11:54.082Z,98529.27
2019-02-08T09:15:01.373Z,98520.19
2019-02-08T09:18:02.096Z,98521.74
2019-02-08T09:21:20.440Z,98518.74
2019-02-08T09:24:16.731Z,98520.87
2019-02-08T09:27:25.951Z,98514.39
2019-02-08T09:30:41.531Z,98509.59
2019-02-08T09:33:59.966Z,98506.19
2019-02-08T09:37:10.407Z,98502.62
2019-02-08T09:40:22.951Z,98496.62
2019-02-08T09:43:54.573Z,98499.84
2019-02-08T09:47:05.808Z,98490.52
2019-02-08T09:50:10.869Z,98493.80
2019-02-08T09:53:07.640Z,98494.08
2019-02-08T09:56:27.232Z,98485.81
2019-02-08T09:59:36.270Z,98485.33
2019-02-08T10:02:42.188Z,98483.41
2019-02-08T10:05:51.156Z,98482.60
2019-02-08T10:09:15.516Z,98478.55
2019-02-08T10:12:30.404Z,98480.77
2019-02-08T10:15:37.129Z,98473.78
2019-02-08T10:19:01.685Z,98470.41
2019-02-08T10:22:07.810Z,98467.25
2019-02-08T10:25:32.545Z,98468.30
2019-02-08T10:28:39.769Z,98457.70
2019-02-08T10:31:44.723Z,98458.59
2019-02-08T10:34:49.514Z,98462.29
2019-02-08T10:37:49.893Z,98447.14
2019-02-08T10:40:56.250Z,98456.17
2019-02-08T10:44:03.553Z,98456.99
2019-02-08T10:47:04.780Z,98459.42
2019-02-08T10:49:59.469Z,98457.47
2019-02-08T10:53:08.735Z,98447.69
2019-02-08T10:56:34.242Z,98444.48
2019-02-08T10:59:31.411Z,98433.09
2019-02-08T11:02:42.392Z,98446.36
2019-02-08T11:05:52.492Z,98439.39
2019-02-08T11:09:01.842Z,98438.95
2019-02-08T11:12:06.884Z,98424.03
2019-02-08T11:15:25.924Z,98428.75
2019-02-08T11:18:36.281Z,98421.08
2019-02-08T11:21:06.689Z,98419.67
2019-02-08T11:23:35.984Z,98411.44
2019-02-08T11:26:06.516Z,98415.06
2019-02-08T11:28:35.764Z,98405.28
2019-02-08T11:31:05.485Z,98413.56
2019-02-08T11:33:35.018Z,98406.81
2019-02-08T11:36:05.178Z,98399.80
2019-02-08T11:38:34.477Z,98398.95
2019-02-08T11:41:03.879Z,98396.57
2019-02-08T11:43:33.312Z,98392.89
2019-02-08T11:46:02.567Z,98391.95
2019-02-08T11:48:31.855Z,98382.94
2019-02-08T11:51:01.112Z,98387.05
2019-02-08T11:53:30.388Z,98389.91
2019-02-08T11:55:59.717Z,98386.73
2019-02-08T11:58:28.977Z,98384.19
2019-02-08T12:00:59.354Z,98379.91
2019-02-08T12:03:28.609Z,98374.64
2019-02-08T12:05:57.869Z,98369.87
2019-02-08T12:08:27.352Z,98358.53
2019-02-08T12:10:56.602Z,98362.45
2019-02-08T12:13:25.886Z,98361.39
2019-02-08T12:15:55.142Z,98359.78
2019-02-08T12:18:24.392Z,98363.77
2019-02-08T12:20:54.156Z,98354.70
2019-02-08T12:23:23.455Z,98357.84
2019-02-08T12:25:52.809Z,98345.90
2019-02-08T12:28:22.063Z,98336.09
2019-02-08T12:30:51.327Z,98333.19
2019-02-08T12:33:20.637Z,98334.30
2019-02-08T12:35:49.898Z,98333.16
2019-02-08T12:38:19.297Z,98316.36
2019-02-08T12:40:48.599Z,98313.05
2019-02-08T12:43:17.974Z,98305.89
2019-02-08T12:45:47.271Z,98307.58
2019-02-08T12:48:16.548Z,98306.44
2019-02-08T12:50:45.819Z,98306.40
2019-02-08T12:53:15.093Z,98300.74
2019-02-08T12:55:44.345Z,98297.36
2019-02-08T12:58:13.657Z,98295.25
2019-02-08T13:00:42.906Z,98294.77
2019-02-08T13:03:12.164Z,98289.83
2019-02-08T13:05:41.442Z,98285.73
2019-02-08T13:08:10.783Z,98288.72
2019-02-08T13:10:40.124Z,98276.23
2019-02-08T13:13:09.411Z,98280.72
2019-02-08T13:15:38.703Z,98282.45
2019-02-08T13:18:07.977Z,98271.86
2019-02-08T13:20:37.225Z,98268.69
2019-02-08T13:23:06.514Z,98269.66
2019-02-08T13:25:35.869Z,98273.79
2019-02-08T13:28:05.152Z,98269.05
2019-02-08T13:30:34.660Z,98260.17
2019-02-08T13:33:04.107Z,98256.16
2019-02-08T13:35:33.416Z,98250.46
2019-02-08T13:38:03.119Z,98246.82
2019-02-08T13:40:32.624Z,98245.00
2019-02-08T13:43:01.907Z,98236.84
2019-02-08T13:45:31.155Z,98242.69
2019-02-08T13:48:00.538Z,98234.28
2019-02-08T13:50:30.496Z,98230.30
2019-02-08T13:52:59.798Z,98231.55
2019-02-08T13:55:29.545Z,98224.54
2019-02-08T13:57:58.794Z,98222.39
2019-02-08T14:00:31.459Z,98215.08
2019-02-08T14:03:01.218Z,98210.30
2019-02-08T14:05:30.708Z,98203.94
2019-02-08T14:07:59.953Z,98206.91
2019-02-08T14:10:29.227Z,98215.00
2019-02-08T14:12:58.530Z,98210.56
2019-02-08T14:15:28.784Z,98200.56
2019-02-08T14:17:58.057Z,98196.02
2019-02-08T14:20:27.886Z,98195.16
2019-02-08T14:22:57.171Z,98198.28
2019-02-08T14:25:26.546Z,98193.16
2019-02-08T14:27:55.807Z,98202.50
2019-02-08T14:30:30.434Z,98193.42
2019-02-08T14:33:00.921Z,98194.28
2019-02-08T14:35:30.330Z,98196.14
2019-02-08T14:38:00.626Z,98190.66
2019-02-08T14:40:30.262Z,98188.94
2019-02-08T14:42:59.527Z,98197.62
2019-02-08T14:45:30.869Z,98187.28
2019-02-08T14:48:01.611Z,98184.94
2019-02-08T14:50:30.871Z,98171.22
2019-02-08T14:53:01.616Z,98171.76
2019-02-08T14:55:51.359Z,98167.43
2019-02-08T14:58:20.759Z,98164.47
2019-02-08T15:00:49.997Z,98159.90
2019-02-08T15:03:19.254Z,98159.80
2019-02-08T15:05:48.971Z,98156.70
2019-02-08T15:08:18.205Z,98155.02
2019-02-08T15:10:48.848Z,98145.86
2019-02-08T15:13:18.117Z,98147.70
2019-02-08T15:15:48.620Z,98137.38
2019-02-08T15:18:18.729Z,98151.48
2019-02-08T15:20:48.221Z,98141.18
2019-02-08T15:23:17.559Z,98138.70
2019-02-08T15:25:46.798Z,98143.83
2019-02-08T15:28:16.072Z,98128.72
2019-02-08T15:30:45.319Z,98126.42
2019-02-08T15:33:14.573Z,98140.16
2019-02-08T15:35:43.922Z,98139.52
2019-02-08T15:38:13.163Z,98139.00
2019-02-08T15:40:45.117Z,98134.81
2019-02-08T15:43:15.413Z,98127.20
2019-02-08T15:45:48.392Z,98124.41
2019-02-08T15:48:17.742Z,98130.12
2019-02-08T15:50:47.002Z,98128.41
2019-02-08T15:53:16.291Z,98112.41
2019-02-08T15:55:47.351Z,98116.95
2019-02-08T15:58:16.884Z,98120.02
2019-02-08T16:00:46.539Z,98113.77
2019-02-08T16:03:15.999Z,98109.45
2019-02-08T16:05:45.275Z,98100.20
2019-02-08T16:08:14.540Z,98099.55
2019-02-08T16:10:43.824Z,98091.94
2019-02-08T16:13:13.109Z,98091.30
2019-02-08T16:15:42.579Z,98097.39
2019-02-08T16:18:12.132Z,98095.16
2019-02-08T16:20:42.026Z,98096.19
2019-02-08T16:23:11.504Z,98088.62
2019-02-08T16:25:40.807Z,98095.27
2019-02-08T16:28:10.079Z,98094.45
2019-02-08T16:30:40.198Z,98089.27
2019-02-08T16:33:09.527Z,98087.13
2019-02-08T16:35:39.029Z,98094.38
2019-02-08T16:38:08.462Z,98095.03
2019-02-08T16:40:38.005Z,98087.84
2019-02-08T16:43:09.027Z,98084.67
2019-02-08T16:45:40.551Z,98087.69
2019-02-08T16:48:10.958Z,98076.84
2019-02-08T16:50:40.858Z,98079.62
2019-02-08T16:53:10.813Z,98093.80
2019-02-08T16:55:40.414Z,98082.14
2019-02-08T16:58:10.404Z,98085.59
2019-02-08T17:00:40.121Z,98076.81
2019-02-08T17:03:11.424Z,98078.25
2019-02-08T17:05:41.154Z,98087.33
2019-02-08T17:08:11.333Z,98088.59
2019-02-08T17:10:40.883Z,98085.77
2019-02-08T17:13:10.258Z,98078.55
2019-02-08T17:15:39.771Z,98073.45
2019-02-08T17:18:09.266Z,98074.14
2019-02-08T17:20:40.950Z,98069.88
2019-02-08T17:23:12.494Z,98060.89
2019-02-08T17:25:41.849Z,98055.41
2019-02-08T17:28:13.047Z,98055.09
2019-02-08T17:30:42.413Z,98054.30
2019-02-08T17:33:12.385Z,98056.58
2019-02-08T17:35:41.661Z,98045.82
2019-02-08T17:38:12.257Z,98042.73
2019-02-08T17:40:43.693Z,98042.63
2019-02-08T17:43:14.282Z,98044.84
2019-02-08T17:45:43.569Z,98041.14
2019-02-08T17:48:15.149Z,98043.69
2019-02-08T17:50:47.507Z,98032.38
2019-02-08T17:53:16.793Z,98029.97
2019-02-08T17:55:48.448Z,98027.64
2019-02-08T17:58:19.007Z,98023.63
2019-02-08T18:00:55.855Z,98030.88
2019-02-08T18:03:25.482Z,98025.36
2019-02-08T18:05:56.419Z,98024.13
2019-02-08T18:08:27.074Z,98022.16
2019-02-08T18:10:57.487Z,98023.83
2019-02-08T18:13:28.342Z,98017.78
2019-02-08T18:16:00.338Z,98016.09
2019-02-08T18:18:31.522Z,98011.77
2019-02-08T18:21:08.444Z,98014.09
2019-02-08T18:23:39.038Z,98012.75
2019-02-08T18:26:11.699Z,98012.31
2019-02-08T18:28:41.250Z,98014.22
2019-02-08T18:31:13.977Z,98016.67
2019-02-08T18:33:44.625Z,98014.05
2019-02-08T18:36:14.698Z,98011.87
2019-02-08T18:38:45.169Z,98002.58
2019-02-08T18:41:14.816Z,97998.13
2019-02-08T18:43:44.489Z,97997.42
2019-02-08T18:46:14.069Z,97990.97
2019-02-08T18:48:45.682Z,97977.40
2019-02-08T18:51:16.687Z,97974.91
2019-02-08T18:53:47.946Z,97971.01
2019-02-08T18:56:17.352Z,97971.75
2019-02-08T18:58:48.016Z,97981.45
2019-02-08T19:01:19.208Z,97979.24
2019-02-08T19:03:48.704Z,97971.02
2019-02-08T19:06:19.681Z,97976.91
2019-02-08T19:08:50.586Z,97971.97
2019-02-08T19:11:21.660Z,97967.48
2019-02-08T19:13:52.706Z,97972.92
2019-02-08T19:16:22.590Z,97974.98
2019-02-08T19:18:54.973Z,97964.48
2019-02-08T19:21:25.826Z,97963.92
2019-02-08T19:23:56.694Z,97951.64
2019-02-08T19:26:27.979Z,97956.31
2019-02-08T19:28:58.454Z,97948.48
2019-02-08T19:31:27.984Z,97952.66
2019-02-08T19:33:57.611Z,97950.41
2019-02-08T19:36:27.200Z,97950.27
2019-02-08T19:38:58.027Z,97952.16
2019-02-08T19:41:29.239Z,97947.25
2019-02-08T19:44:01.272Z,97946.02
2019-02-08T19:46:32.055Z,97943.63
2019-02-08T19:49:01.703Z,97946.52
2019-02-08T19:51:31.366Z,97942.70
2019-02-08T19:54:02.449Z,97943.69
2019-02-08T19:56:33.405Z,97937.55
2019-02-08T19:59:03.220Z,97939.58
2019-02-08T20:01:32.915Z,97932.95
2019-02-08T20:04:03.663Z,97933.01
2019-02-08T20:06:35.620Z,97935.46
2019-02-08T20:09:09.552Z,97925.77
2019-02-08T20:11:40.233Z,97934.30
2019-02-08T20:14:12.397Z,97929.70
2019-02-08T20:16:43.176Z,97927.85
2019-02-08T20:19:13.264Z,97929.20
2019-02-08T20:21:44.338Z,97925.77
2019-02-08T20:24:15.125Z,97929.97
2019-02-08T20:26:46.118Z,97934.11
2019-02-08T20:29:17.500Z,97927.48
2019-02-08T20:31:48.009Z,97925.67
2019-02-08T20:34:17.688Z,97923.80
2019-02-08T20:36:47.370Z,97922.91
2019-02-08T20:39:18.048Z,97915.72
2019-02-08T20:41:48.685Z,97916.83
2019-02-08T20:44:21.211Z,97914.80
2019-02-08T20:46:52.888Z,97908.45
2019-02-08T20:49:28.282Z,97912.37
2019-02-08T20:51:58.435Z,97910.47
2019-02-08T20:54:29.189Z,97896.97
2019-02-08T20:56:59.264Z,97895.38
2019-02-08T20:59:29.049Z,97890.89
2019-02-08T21:02:00.317Z,97884.58
2019-02-08T21:04:31.735Z,97876.72
2019-02-08T21:07:01.038Z,97879.20
2019-02-08T21:09:30.310Z,97875.00
2019-02-08T21:11:59.634Z,97868.64
2019-02-08T21:14:28.995Z,97866.16
2019-02-08T21:16:59.876Z,97858.70
2019-02-08T21:19:29.169Z,97857.48
2019-02-08T21:21:58.448Z,97853.80
2019-02-08T21:24:27.797Z,97855.00
2019-02-08T21:26:57.078Z,97845.18
2019-02-08T21:29:26.413Z,97836.84
2019-02-08T21:31:55.669Z,97833.28
2019-02-08T21:34:24.990Z,97816.77
2019-02-08T21:36:54.266Z,97818.06
2019-02-08T21:39:23.540Z,97815.00
2019-02-08T21:41:52.832Z,97818.80
2019-02-08T21:44:22.102Z,97804.38
2019-02-08T21:46:51.375Z,97808.37
2019-02-08T21:49:20.653Z,97808.00
2019-02-08T21:51:50.052Z,97799.41
2019-02-08T21:54:19.327Z,97803.38
2019-02-08T21:56:48.608Z,97791.59
2019-02-08T21:59:17.896Z,97796.16
2019-02-08T22:01:47.441Z,97805.21
2019-02-08T22:04:16.721Z,97793.52
2019-02-08T22:06:46.042Z,97785.09
2019-02-08T22:09:15.631Z,97789.75
2019-02-08T22:11:44.915Z,97780.59
2019-02-08T22:14:14.163Z,97781.54
2019-02-08T22:16:43.466Z,97775.27
2019-02-08T22:19:12.710Z,97769.94
2019-02-08T22:21:43.102Z,97766.45
2019-02-08T22:24:12.351Z,97755.53
2019-02-08T22:26:42.884Z,97750.38
2019-02-08T22:29:14.443Z,97757.67
2019-02-08T22:31:44.725Z,97751.95
2019-02-08T22:34:15.156Z,97745.41
2019-02-08T22:36:46.146Z,97738.03
2019-02-08T22:39:17.171Z,97733.25
2019-02-08T22:41:48.158Z,97736.27
2019-02-08T22:44:19.263Z,97732.32
2019-02-08T22:46:50.724Z,97723.77
2019-02-08T22:49:21.573Z,97707.57
2019-02-08T22:51:53.355Z,97701.31
2019-02-08T22:54:23.935Z,97702.77
2019-02-08T22:56:55.182Z,97696.63
2019-02-08T22:59:25.050Z,97699.03
2019-02-08T23:01:55.506Z,97697.13
2019-02-08T23:04:24.810Z,97704.44
2019-02-08T23:06:54.127Z,97701.75
2019-02-08T23:09:24.599Z,97700.94
2019-02-08T23:11:53.846Z,97700.45
2019-02-08T23:14:23.562Z,97701.06
2019-02-08T23:16:52.915Z,97706.51
2019-02-08T23:19:22.207Z,97701.93
2019-02-08T23:21:51.457Z,97704.48
2019-02-08T23:24:20.742Z,97698.59
2019-02-08T23:26:50.370Z,97694.70
2019-02-08T23:29:19.637Z,97696.16
2019-02-08T23:31:48.942Z,97687.55
2019-02-08T23:34:18.353Z,97683.15
2019-02-08T23:36:47.634Z,97685.42
2019-02-08T23:39:16.915Z,97683.83
2019-02-08T23:41:47.659Z,97680.19
2019-02-08T23:44:16.935Z,97678.22
2019-02-08T23:46:46.265Z,97682.02
2019-02-08T23:49:17.241Z,97686.06
2019-02-08T23:51:46.531Z,97679.64
2019-02-08T23:54:16.243Z,97679.48
2019-02-08T23:56:45.487Z,97674.38
2019-02-08T23:59:16.232Z,97671.91
